createdAt,value
2023-01-12T00:01:57.205Z,6.20
2023-01-12T00:04:24.395Z,6.30
2023-01-12T00:06:51.541Z,6.10
2023-01-12T00:11:46.138Z,6.10
2023-01-12T00:14:13.499Z,6.10
2023-01-12T00:16:43.305Z,6.10
2023-01-12T00:19:16.123Z,6.20
2023-01-12T00:22:24.028Z,6.10
2023-01-12T00:24:52.662Z,6.10
2023-01-12T00:29:49.291Z,6.30
2023-01-12T00:32:18.709Z,6.30
2023-01-12T00:34:45.918Z,6.20
2023-01-12T00:37:13.146Z,6.30
2023-01-12T00:39:45.405Z,6.30
2023-01-12T00:42:32.310Z,6.20
2023-01-12T00:45:17.796Z,6.20
2023-01-12T00:47:44.935Z,6.20
2023-01-12T00:50:12.016Z,6.20
2023-01-12T00:52:39.126Z,6.20
2023-01-12T00:55:06.774Z,6.10
2023-01-12T00:57:34.084Z,5.90
2023-01-12T01:00:01.156Z,6.10
2023-01-12T01:02:28.929Z,6.20
2023-01-12T01:04:56.347Z,6.10
2023-01-12T01:07:23.533Z,6.10
2023-01-12T01:09:51.273Z,6.00
2023-01-12T01:12:18.502Z,6.00
2023-01-12T01:14:47.589Z,6.10
2023-01-12T01:17:14.696Z,6.10
2023-01-12T01:19:43.417Z,6.20
2023-01-12T01:22:10.652Z,6.20
2023-01-12T01:24:37.719Z,6.10
2023-01-12T01:27:04.822Z,6.10
2023-01-12T01:29:31.878Z,6.20
2023-01-12T01:31:58.948Z,6.00
2023-01-12T01:36:53.545Z,6.10
2023-01-12T01:39:20.597Z,6.10
2023-01-12T01:44:53.151Z,6.00
2023-01-12T01:47:30.647Z,6.00
2023-01-12T01:50:00.697Z,6.00
2023-01-12T01:52:36.870Z,5.90
2023-01-12T01:55:12.638Z,5.90
2023-01-12T01:57:53.594Z,5.90
2023-01-12T02:00:22.088Z,5.80
2023-01-12T02:02:49.787Z,5.70
2023-01-12T02:05:20.878Z,5.70
2023-01-12T02:07:49.868Z,5.70
2023-01-12T02:10:17.745Z,5.70
2023-01-12T02:13:03.940Z,5.80
2023-01-12T02:15:58.349Z,5.90
2023-01-12T02:18:42.566Z,6.10
2023-01-12T02:21:35.151Z,6.20
2023-01-12T02:24:25.772Z,6.10
2023-01-12T02:27:37.345Z,6.00
2023-01-12T02:30:51.296Z,6.10
2023-01-12T02:33:47.039Z,6.00
2023-01-12T02:36:50.508Z,6.00
2023-01-12T02:40:03.460Z,6.10
2023-01-12T02:43:06.015Z,6.20
2023-01-12T02:46:01.394Z,6.10
2023-01-12T02:59:22.192Z,6.00
2023-01-12T03:01:56.174Z,6.20
2023-01-12T03:04:24.702Z,6.10
2023-01-12T03:07:36.497Z,6.20
2023-01-12T03:10:45.005Z,6.10
2023-01-12T03:13:15.765Z,6.00
2023-01-12T03:15:47.949Z,6.10
2023-01-12T03:19:01.179Z,6.10
2023-01-12T03:21:34.288Z,6.10
2023-01-12T03:24:17.308Z,6.10
2023-01-12T03:26:49.464Z,6.20
2023-01-12T03:29:29.958Z,6.20
2023-01-12T03:31:57.299Z,6.20
2023-01-12T04:20:02.894Z,6.50
2023-01-12T04:35:26.875Z,6.70
2023-01-12T04:37:54.496Z,6.60
2023-01-12T04:40:21.730Z,6.50
2023-01-12T04:43:02.556Z,6.50
2023-01-12T05:02:48.150Z,6.70
2023-01-12T05:20:21.912Z,6.50
2023-01-12T08:42:13.518Z,6.30
2023-01-12T08:47:19.948Z,6.80
2023-01-12T08:54:43.024Z,6.80
2023-01-12T08:57:10.121Z,6.90
2023-01-12T08:59:37.382Z,6.90
2023-01-12T09:02:05.056Z,7.00
2023-01-12T09:04:32.358Z,7.00
2023-01-12T09:07:00.275Z,7.00
2023-01-12T09:09:27.668Z,7.10
2023-01-12T09:11:54.802Z,7.20
2023-01-12T09:14:22.023Z,7.10
2023-01-12T09:16:49.640Z,7.20
2023-01-12T09:19:16.973Z,7.30
2023-01-12T09:21:44.644Z,7.30
2023-01-12T09:24:12.247Z,7.30
2023-01-12T09:26:44.430Z,7.30
2023-01-12T09:29:13.159Z,7.30
2023-01-12T09:34:10.053Z,7.30
2023-01-12T09:44:56.364Z,7.40
2023-01-12T09:50:25.125Z,7.50
2023-01-12T09:55:29.671Z,7.70
2023-01-12T10:00:49.125Z,7.70
2023-01-12T10:09:00.831Z,7.80
2023-01-12T10:14:42.235Z,7.80
2023-01-12T10:17:50.867Z,7.90
2023-01-12T10:20:47.481Z,8.00
2023-01-12T10:23:24.843Z,7.90
2023-01-12T10:26:03.509Z,7.90
2023-01-12T10:33:34.765Z,8.10
2023-01-12T10:41:27.112Z,8.00
2023-01-12T10:46:40.414Z,8.10
2023-01-12T10:49:24.668Z,8.10
2023-01-12T10:52:00.133Z,8.20
2023-01-12T10:57:23.412Z,8.30
2023-01-12T10:59:53.560Z,8.40
2023-01-12T11:02:20.919Z,8.40
2023-01-12T11:04:52.883Z,8.30
2023-01-12T11:12:42.334Z,8.30
2023-01-12T11:15:18.325Z,8.40
2023-01-12T11:18:23.591Z,8.30
2023-01-12T11:21:05.230Z,8.30
2023-01-12T11:26:32.782Z,8.40
2023-01-12T13:20:50.784Z,9.60
2023-01-12T13:36:03.545Z,10.30
2023-01-12T13:38:59.876Z,10.10
2023-01-12T13:44:29.845Z,9.80
2023-01-12T13:47:24.719Z,9.60
2023-01-12T13:57:30.694Z,9.60
2023-01-12T14:00:00.031Z,9.60
2023-01-12T14:02:32.814Z,9.60
2023-01-12T14:05:27.157Z,9.60
2023-01-12T14:08:50.163Z,9.60
2023-01-12T14:11:57.121Z,9.50
2023-01-12T14:20:28.058Z,9.50
2023-01-12T14:23:41.449Z,9.50
2023-01-12T14:26:18.750Z,9.60
2023-01-12T14:31:54.025Z,9.60
2023-01-12T14:34:34.817Z,9.70
2023-01-12T14:37:04.879Z,9.70
2023-01-12T14:42:22.603Z,9.60
2023-01-12T14:47:42.068Z,9.60
2023-01-12T14:52:48.192Z,9.70
2023-01-12T14:58:06.573Z,9.70
2023-01-12T15:03:21.251Z,9.60
2023-01-12T15:05:55.056Z,9.70
2023-01-12T15:08:26.992Z,9.70
2023-01-12T15:11:09.281Z,9.60
2023-01-12T15:19:10.279Z,9.70
2023-01-12T22:24:21.820Z,7.80
2023-01-12T22:41:41.286Z,7.70
2023-01-12T23:06:22.788Z,7.60
2023-01-12T23:16:16.537Z,7.70
2023-01-12T23:18:45.619Z,7.80
2023-01-12T23:26:13.393Z,7.70
2023-01-12T23:28:45.417Z,7.60
2023-01-12T23:33:43.257Z,7.70
2023-01-12T23:36:16.127Z,7.80
2023-01-12T23:58:25.377Z,7.80
